Home PIREPS Pireps

Flight BEL11997TR

  • Submitted By: AndrĂ© Vincent
  • Departure Airport: Flughafen Wien-Schwechat (LOWW)
  • Arrival Airport: Dubai International Airport (OMDB)
  • Aircraft: YOUR CHOICE (YC)
  • Flight Time: 05.48
  • Date Submitted: 08/09/2017
  • Status: Accepted
Flight Details
Gross Revenue:
(25 load / € 0.00 per unit
€ 0.00
Fuel Cost:
(60326 fuel used @ 5.1 / unit)
€ 307,662.60

Additional Log Information:

View Log

Aircraft Used in flight is Boeing 747-400
12:26 Brakes are On
12:32 Brakes are Released
12:39 Landing Gear Up @ 13 Knots and 610 Feet
12:41 You Took off @ 217 Knots and Flaps at Position 2
Departure Weather
LOWW 081020Z 16014KT CAVOK 21/10 Q1014 NOSIGrn
12:41 You are Airborne and your Navigation Lights are off
12:43 Below 10000 feet you are not allowed to go over 250 knots
12:47 Landing Gear Up @ 256 Knots and 15790 Feet
17:43 Above FL100 you need to switch of the landing lights
17:43 Above FL100 you need to switch of the landing lights
18:03 Landing Gear Down @ 181 Knots and 1990 Feet
18:09 You Landed @ 144 Knots and with -750 Vertical Speed
Arrival Weather
OMDB 081500Z 34008KT 310V030 CAVOK 35/26 Q1005 NOSIGrn
18:09 Your Landing was very hard
18:13 Brakes are On
18:14 Brussels Bel-Track1.0.1.2

Route Map

Corporate About Us Our Team Vacancies Information Fleet Route Network Rules and Regulations Operations Flight Schedules Event Center Tours Partners IVAO Vatsim Acars dev FSCB

fb Users Online No pilots online!
0 Pilot(s) and 75 Guest(s) Online
CMS by phpVMS - Design by Crazycreatives.com - Copyright © 2018 - Brussels Airlines Virtual